Time;durP1;ratioP1;P1;durP2;ratioP2;P2;SDS_P1;SDS_P2;PMS_P1;PMS_P2;Temp;Humidity;BMP_temperature;BMP_pressure;BME280_temperature;BME280_humidity;BME280_pressure;Samples;Min_cycle;Max_cycle;Signal;HPM_P1;HPM_P2
2023/09/17 00:00:15;;;;;;;7.83;7.27;;;19.40;99.90;;;;;;5017638;28;20219;-80
2023/09/17 00:02:42;;;;;;;8.13;7.53;;;19.30;99.90;;;;;;5037007;28;20222;-81
2023/09/17 00:05:10;;;;;;;8.20;7.60;;;19.20;99.90;;;;;;5029234;28;20207;-80
2023/09/17 00:07:37;;;;;;;8.63;7.83;;;19.20;99.90;;;;;;5032998;28;20198;-80
2023/09/17 00:10:05;;;;;;;8.70;8.07;;;19.10;99.90;;;;;;5028843;28;20234;-81
2023/09/17 00:12:32;;;;;;;8.67;7.97;;;19.10;99.90;;;;;;5033251;28;20662;-81
2023/09/17 00:14:59;;;;;;;8.83;8.03;;;19.00;99.90;;;;;;5029218;28;20211;-80
2023/09/17 00:17:26;;;;;;;8.77;8.07;;;19.00;99.90;;;;;;5030287;28;20665;-80
2023/09/17 00:19:53;;;;;;;9.10;8.40;;;18.90;99.90;;;;;;5028919;28;20586;-80
2023/09/17 00:22:21;;;;;;;8.90;8.17;;;18.80;99.90;;;;;;5027120;28;20705;-81
2023/09/17 00:24:48;;;;;;;9.83;8.97;;;18.70;99.90;;;;;;5031106;28;20253;-80
2023/09/17 00:27:15;;;;;;;9.47;8.77;;;18.70;99.90;;;;;;5031592;28;20687;-80
2023/09/17 00:29:41;;;;;;;8.83;8.03;;;18.60;99.90;;;;;;5018042;28;20213;-81
2023/09/17 00:32:08;;;;;;;9.30;8.60;;;18.50;99.90;;;;;;5029983;28;20211;-80
2023/09/17 00:34:35;;;;;;;10.00;9.20;;;18.50;99.90;;;;;;5025136;28;20205;-81
2023/09/17 00:37:03;;;;;;;9.20;8.50;;;18.50;99.90;;;;;;5033207;28;20224;-81
2023/09/17 00:39:31;;;;;;;9.50;8.70;;;18.50;99.90;;;;;;5027228;28;20222;-81
2023/09/17 00:41:58;;;;;;;9.60;8.80;;;18.50;99.90;;;;;;5028806;28;20688;-80
2023/09/17 00:44:25;;;;;;;8.97;8.23;;;18.40;99.90;;;;;;5029627;28;20564;-80
2023/09/17 00:46:52;;;;;;;9.70;8.90;;;18.40;99.90;;;;;;5026074;28;20208;-81
2023/09/17 00:49:19;;;;;;;9.03;8.37;;;18.40;99.90;;;;;;5022300;28;20284;-81
2023/09/17 00:51:46;;;;;;;9.30;8.37;;;18.40;99.90;;;;;;5027315;28;20208;-81
2023/09/17 00:54:14;;;;;;;9.43;8.70;;;18.40;99.90;;;;;;5026430;28;20205;-80
2023/09/17 00:56:42;;;;;;;9.10;8.40;;;18.40;99.90;;;;;;5029585;28;20200;-80
2023/09/17 00:59:10;;;;;;;9.30;8.53;;;18.30;99.90;;;;;;5027857;28;20235;-81
2023/09/17 01:01:37;;;;;;;9.23;8.53;;;18.30;99.90;;;;;;5027825;28;20763;-80
2023/09/17 01:04:04;;;;;;;9.90;9.13;;;18.30;99.90;;;;;;5040575;28;20193;-81
2023/09/17 01:06:32;;;;;;;9.10;8.30;;;18.20;99.90;;;;;;5028602;28;20306;-80
2023/09/17 01:09:00;;;;;;;9.30;8.60;;;18.20;99.90;;;;;;5027133;28;20271;-80
2023/09/17 01:11:27;;;;;;;9.87;9.07;;;18.10;99.90;;;;;;5024927;28;20259;-79
2023/09/17 01:14:08;;;;;;;8.97;8.27;;;18.10;99.90;;;;;;5028888;28;20204;-80
2023/09/17 01:16:35;;;;;;;9.27;8.57;;;18.10;99.90;;;;;;5026067;28;20204;-80
2023/09/17 01:19:03;;;;;;;9.03;8.40;;;18.00;99.90;;;;;;5022502;28;20220;-80
2023/09/17 01:21:38;;;;;;;9.93;9.10;;;18.10;99.90;;;;;;5025264;28;20199;-81
2023/09/17 01:24:21;;;;;;;9.70;8.90;;;18.10;99.90;;;;;;5028614;28;20198;-81
2023/09/17 01:27:00;;;;;;;9.03;8.33;;;18.00;99.90;;;;;;5013823;28;20196;-81
2023/09/17 01:29:32;;;;;;;9.27;8.57;;;17.90;99.90;;;;;;5025367;28;20307;-80
2023/09/17 01:31:59;;;;;;;8.87;8.20;;;17.90;99.90;;;;;;5029687;28;20261;-80
2023/09/17 01:34:27;;;;;;;8.63;8.03;;;17.80;99.90;;;;;;5029637;28;20262;-80
2023/09/17 01:36:58;;;;;;;9.07;8.37;;;17.80;99.90;;;;;;5026099;28;20274;-81
2023/09/17 01:39:28;;;;;;;9.20;8.40;;;17.90;99.90;;;;;;5024724;28;20699;-81
2023/09/17 01:41:58;;;;;;;9.37;8.67;;;17.90;99.90;;;;;;5019993;28;20212;-81
2023/09/17 01:44:26;;;;;;;9.30;8.50;;;17.90;99.90;;;;;;5037980;28;20202;-80
2023/09/17 01:46:53;;;;;;;8.70;8.10;;;18.00;99.90;;;;;;5026883;28;20659;-80
2023/09/17 01:49:20;;;;;;;9.70;8.90;;;18.00;99.90;;;;;;5023589;28;20422;-80
2023/09/17 01:51:48;;;;;;;9.83;9.03;;;18.00;99.90;;;;;;5016271;28;20667;-81
2023/09/17 01:54:15;;;;;;;9.70;8.90;;;18.00;99.90;;;;;;5009908;28;20209;-80
2023/09/17 01:56:43;;;;;;;9.60;8.90;;;18.00;99.90;;;;;;5005829;28;20654;-81
2023/09/17 01:59:12;;;;;;;8.87;8.23;;;17.90;99.90;;;;;;5018861;28;20227;-81
2023/09/17 02:01:39;;;;;;;9.13;8.43;;;18.00;99.90;;;;;;5026823;28;20727;-80
2023/09/17 02:04:05;;;;;;;8.93;8.23;;;18.00;99.90;;;;;;5028320;28;20208;-80
2023/09/17 02:06:32;;;;;;;9.20;8.40;;;18.00;99.90;;;;;;5029442;28;20246;-81
2023/09/17 02:08:59;;;;;;;8.97;8.33;;;18.00;99.90;;;;;;5026343;28;20274;-81
2023/09/17 02:11:26;;;;;;;9.43;8.73;;;18.00;99.90;;;;;;5024192;28;20222;-80
2023/09/17 02:13:53;;;;;;;9.67;8.87;;;18.00;99.90;;;;;;5024334;28;20231;-81
2023/09/17 02:16:21;;;;;;;10.10;9.30;;;18.00;99.90;;;;;;5024019;28;20201;-80
2023/09/17 02:18:50;;;;;;;9.63;8.93;;;18.00;99.90;;;;;;5028052;28;20212;-79
2023/09/17 02:21:17;;;;;;;9.10;8.40;;;17.90;99.90;;;;;;5028371;28;20222;-80
2023/09/17 02:23:45;;;;;;;9.10;8.40;;;17.90;99.90;;;;;;5030215;28;20254;-80
2023/09/17 02:26:11;;;;;;;9.57;8.77;;;17.90;99.90;;;;;;5026335;28;20205;-80
2023/09/17 02:28:38;;;;;;;9.77;8.87;;;17.90;99.90;;;;;;5022751;28;20715;-80
2023/09/17 02:31:06;;;;;;;9.70;9.00;;;17.90;99.90;;;;;;5017506;28;20215;-80
2023/09/17 02:33:34;;;;;;;9.70;8.90;;;17.80;99.90;;;;;;5028028;28;20574;-80
2023/09/17 02:36:03;;;;;;;9.90;9.10;;;17.70;99.90;;;;;;5027124;28;20204;-80
2023/09/17 02:38:30;;;;;;;9.43;8.63;;;17.70;99.90;;;;;;5027130;28;20570;-80
2023/09/17 02:40:56;;;;;;;9.90;9.10;;;17.60;99.90;;;;;;5029750;28;20192;-81
2023/09/17 02:43:23;;;;;;;9.73;9.03;;;17.60;99.90;;;;;;5027506;28;20203;-80
2023/09/17 02:45:53;;;;;;;9.90;9.10;;;17.50;99.90;;;;;;5025535;28;20708;-80
2023/09/17 02:48:21;;;;;;;9.97;9.17;;;17.50;99.90;;;;;;5024690;28;20279;-80
2023/09/17 02:50:49;;;;;;;9.60;8.90;;;17.50;99.90;;;;;;5026789;28;20224;-80
2023/09/17 02:53:16;;;;;;;9.93;9.13;;;17.40;99.90;;;;;;5025997;28;20299;-81
2023/09/17 02:55:43;;;;;;;9.83;8.93;;;17.40;99.90;;;;;;5025700;28;20633;-80
2023/09/17 02:58:10;;;;;;;10.20;9.40;;;17.40;99.90;;;;;;5026832;28;20311;-81
2023/09/17 03:00:38;;;;;;;10.60;9.80;;;17.40;99.90;;;;;;5032163;28;20203;-81
2023/09/17 03:03:06;;;;;;;9.73;8.93;;;17.30;99.90;;;;;;5017156;28;20243;-81
2023/09/17 03:05:38;;;;;;;10.20;9.40;;;17.30;99.90;;;;;;5031649;28;20200;-82
2023/09/17 03:08:08;;;;;;;10.00;9.20;;;17.30;99.90;;;;;;5030546;28;20293;-79
2023/09/17 03:10:41;;;;;;;10.73;9.83;;;17.20;99.90;;;;;;5028949;28;20266;-80
2023/09/17 03:13:09;;;;;;;10.70;9.90;;;17.20;99.90;;;;;;5028272;28;20196;-79
2023/09/17 03:15:37;;;;;;;10.30;9.60;;;17.20;99.90;;;;;;5027018;28;20199;-81
2023/09/17 03:18:04;;;;;;;9.83;9.03;;;17.20;99.90;;;;;;5031183;28;20200;-80
2023/09/17 03:20:33;;;;;;;9.97;9.27;;;17.20;99.90;;;;;;5030181;28;20369;-81
2023/09/17 03:23:02;;;;;;;9.83;9.13;;;17.10;99.90;;;;;;5017204;28;20199;-81
2023/09/17 03:25:32;;;;;;;10.07;9.37;;;17.10;99.90;;;;;;5018597;28;20200;-81
2023/09/17 03:28:00;;;;;;;9.90;9.20;;;17.10;99.90;;;;;;5011576;28;20692;-81
2023/09/17 03:30:28;;;;;;;10.37;9.67;;;17.10;99.90;;;;;;5030070;28;20599;-81
2023/09/17 03:32:58;;;;;;;9.60;8.90;;;17.10;99.90;;;;;;5018649;28;20192;-81
2023/09/17 03:35:26;;;;;;;9.53;8.83;;;17.10;99.90;;;;;;5015463;28;20204;-81
2023/09/17 03:37:53;;;;;;;9.63;8.93;;;17.10;99.90;;;;;;5020142;28;20208;-81
2023/09/17 03:40:20;;;;;;;9.57;8.90;;;17.10;99.90;;;;;;5031118;28;20255;-80
2023/09/17 03:42:53;;;;;;;9.90;9.10;;;17.00;99.90;;;;;;5024318;28;20197;-80
2023/09/17 03:45:21;;;;;;;10.67;9.97;;;17.00;99.90;;;;;;5035318;28;20197;-77
2023/09/17 03:47:48;;;;;;;10.33;9.53;;;17.00;99.90;;;;;;5020855;28;20207;-85
2023/09/17 03:50:17;;;;;;;10.33;9.53;;;17.00;99.90;;;;;;5016816;28;20220;-79
2023/09/17 03:52:46;;;;;;;9.80;9.10;;;17.00;99.90;;;;;;5032388;28;20210;-81
2023/09/17 03:55:13;;;;;;;10.07;9.33;;;17.00;99.90;;;;;;5025463;28;20234;-81
2023/09/17 03:57:41;;;;;;;10.27;9.50;;;17.00;99.90;;;;;;5024591;28;20247;-82
2023/09/17 04:00:13;;;;;;;10.73;9.87;;;17.00;99.90;;;;;;5023275;28;20721;-79
2023/09/17 04:02:41;;;;;;;9.97;9.27;;;16.90;99.90;;;;;;5030201;28;20189;-79
2023/09/17 04:05:11;;;;;;;10.13;9.43;;;16.90;99.90;;;;;;5050704;28;20204;-80
2023/09/17 04:07:40;;;;;;;10.07;9.37;;;16.90;99.90;;;;;;5033829;28;20195;-79
2023/09/17 04:10:08;;;;;;;10.00;9.30;;;16.90;99.90;;;;;;5030485;28;20250;-78
2023/09/17 04:12:36;;;;;;;10.97;10.17;;;16.90;99.90;;;;;;5052173;28;20658;-79
2023/09/17 04:15:05;;;;;;;11.63;10.83;;;16.90;99.90;;;;;;5020188;28;20192;-79
2023/09/17 04:17:33;;;;;;;10.93;10.13;;;16.90;99.90;;;;;;5030435;28;20200;-79
2023/09/17 04:20:00;;;;;;;11.20;10.37;;;16.90;99.90;;;;;;5031286;28;20295;-80
2023/09/17 04:22:27;;;;;;;11.07;10.27;;;16.80;99.90;;;;;;5030187;28;20189;-80
2023/09/17 04:24:55;;;;;;;10.83;10.13;;;16.80;99.90;;;;;;5032392;28;20200;-79
2023/09/17 04:27:22;;;;;;;10.70;9.90;;;16.80;99.90;;;;;;5030731;28;20409;-79
2023/09/17 04:29:49;;;;;;;10.77;9.87;;;16.80;99.90;;;;;;5026834;28;20640;-80
2023/09/17 04:32:16;;;;;;;9.97;9.27;;;16.80;99.90;;;;;;5030932;28;20596;-79
2023/09/17 04:34:44;;;;;;;10.50;9.77;;;16.90;99.90;;;;;;5022556;28;20201;-79
2023/09/17 04:37:11;;;;;;;10.40;9.70;;;16.90;99.90;;;;;;5030478;28;20200;-79
2023/09/17 04:39:38;;;;;;;10.70;9.90;;;16.80;99.90;;;;;;5029201;28;20596;-78
2023/09/17 04:42:05;;;;;;;10.87;10.07;;;16.80;99.90;;;;;;5049617;28;20263;-79
2023/09/17 04:44:32;;;;;;;10.63;9.83;;;16.80;99.90;;;;;;5030742;28;20216;-79
2023/09/17 04:47:00;;;;;;;11.07;10.27;;;16.80;99.90;;;;;;5036072;28;20250;-79
2023/09/17 04:49:28;;;;;;;10.63;9.93;;;16.80;99.90;;;;;;5031269;28;20475;-79
2023/09/17 04:51:56;;;;;;;10.40;9.70;;;16.80;99.90;;;;;;5028443;28;20220;-78
2023/09/17 04:54:23;;;;;;;10.80;10.00;;;16.80;99.90;;;;;;5028563;28;20203;-79
2023/09/17 04:56:51;;;;;;;10.50;9.80;;;16.80;99.90;;;;;;5027107;28;20708;-79
2023/09/17 04:59:18;;;;;;;10.30;9.40;;;16.80;99.90;;;;;;5030077;28;20235;-80
2023/09/17 05:01:45;;;;;;;10.50;9.70;;;16.80;99.90;;;;;;5025743;28;20202;-80
2023/09/17 05:04:12;;;;;;;10.80;9.87;;;16.80;99.90;;;;;;5033714;28;20192;-80
2023/09/17 05:06:42;;;;;;;10.53;9.73;;;16.80;99.90;;;;;;5030849;28;20200;-79
2023/09/17 05:09:10;;;;;;;11.40;10.50;;;16.70;99.90;;;;;;5024167;28;20223;-80
2023/09/17 05:11:37;;;;;;;10.80;10.00;;;16.70;99.90;;;;;;5028646;28;20234;-79
2023/09/17 05:14:04;;;;;;;10.50;9.80;;;16.70;99.90;;;;;;5026825;28;20200;-78
2023/09/17 05:16:31;;;;;;;10.83;10.03;;;16.70;99.90;;;;;;5028262;28;20271;-80
2023/09/17 05:19:00;;;;;;;10.80;10.00;;;16.70;99.90;;;;;;5030444;28;20216;-79
2023/09/17 05:21:27;;;;;;;11.00;10.20;;;16.80;99.90;;;;;;5031455;28;20202;-79
2023/09/17 05:23:53;;;;;;;10.97;10.13;;;16.80;99.90;;;;;;5032856;28;20227;-79
2023/09/17 05:26:22;;;;;;;10.80;10.00;;;16.90;99.90;;;;;;5029286;28;20188;-78
2023/09/17 05:28:49;;;;;;;10.57;9.83;;;16.90;99.90;;;;;;5026952;28;20662;-79
2023/09/17 05:31:17;;;;;;;10.73;9.93;;;17.00;99.90;;;;;;5022298;28;20216;-78
2023/09/17 05:33:44;;;;;;;11.30;10.40;;;17.10;99.90;;;;;;5037645;28;20209;-80
2023/09/17 05:36:11;;;;;;;10.40;9.70;;;17.20;99.90;;;;;;5030280;28;20585;-79
2023/09/17 05:38:39;;;;;;;10.60;9.77;;;17.20;99.90;;;;;;5026678;28;20232;-78
2023/09/17 05:41:06;;;;;;;10.37;9.60;;;17.30;99.90;;;;;;5032437;28;20676;-79
2023/09/17 05:43:34;;;;;;;10.00;9.30;;;17.30;99.90;;;;;;5028670;28;20199;-78
2023/09/17 05:46:02;;;;;;;10.10;9.40;;;17.40;99.90;;;;;;5027906;28;20318;-79
2023/09/17 05:48:36;;;;;;;9.60;9.00;;;17.60;99.90;;;;;;5020003;28;20746;-80
2023/09/17 05:51:04;;;;;;;10.40;9.70;;;17.70;99.90;;;;;;5011030;28;20308;-78
2023/09/17 05:53:31;;;;;;;11.03;10.23;;;17.70;99.90;;;;;;5004786;28;20599;-79
2023/09/17 05:55:59;;;;;;;9.87;9.17;;;17.80;99.90;;;;;;5006349;28;20206;-79
2023/09/17 05:58:25;;;;;;;10.10;9.40;;;17.80;99.90;;;;;;5004978;28;20220;-79
2023/09/17 06:00:54;;;;;;;9.90;9.20;;;17.90;99.90;;;;;;5032671;28;20197;-78
2023/09/17 06:03:21;;;;;;;10.37;9.67;;;18.00;99.90;;;;;;5023891;28;20204;-79
2023/09/17 06:05:49;;;;;;;9.90;9.20;;;18.00;99.90;;;;;;5038694;28;20267;-79
2023/09/17 06:08:15;;;;;;;10.73;9.93;;;18.10;99.90;;;;;;5024898;28;20291;-79
2023/09/17 06:10:43;;;;;;;10.80;10.00;;;18.20;99.90;;;;;;5036932;28;20303;-79
2023/09/17 06:13:10;;;;;;;10.83;10.03;;;18.20;99.90;;;;;;5029867;28;20210;-79
2023/09/17 06:15:37;;;;;;;10.57;9.87;;;18.20;99.90;;;;;;5028098;28;20662;-79
2023/09/17 06:18:06;;;;;;;10.90;10.10;;;18.20;99.90;;;;;;5024119;28;20637;-79
2023/09/17 06:20:34;;;;;;;10.20;9.43;;;18.30;99.90;;;;;;5094892;22;20229;-82
2023/09/17 06:23:01;;;;;;;9.37;8.67;;;18.50;99.90;;;;;;5050501;28;20641;-82
2023/09/17 06:25:28;;;;;;;6.27;4.80;;;18.60;99.90;;;;;;5042251;28;20193;-82
2023/09/17 06:27:55;;;;;;;5.67;5.07;;;18.80;99.90;;;;;;5048916;28;20685;-83
2023/09/17 06:30:24;;;;;;;6.40;5.80;;;18.90;99.90;;;;;;5043147;28;20210;-82
2023/09/17 06:32:52;;;;;;;6.97;5.57;;;19.10;99.90;;;;;;5049503;28;20221;-82
2023/09/17 06:35:20;;;;;;;9.50;8.80;;;19.20;99.90;;;;;;5041376;28;20572;-82
2023/09/17 06:37:48;;;;;;;10.60;9.90;;;19.30;99.90;;;;;;5050177;28;20210;-83
2023/09/17 06:40:17;;;;;;;6.93;5.73;;;19.40;99.90;;;;;;5049027;28;20219;-83
2023/09/17 06:42:44;;;;;;;6.73;6.13;;;19.50;99.90;;;;;;5046134;28;20229;-82
2023/09/17 06:45:12;;;;;;;8.07;7.47;;;19.60;99.90;;;;;;5051404;28;20245;-83
2023/09/17 06:47:39;;;;;;;7.50;6.80;;;19.80;99.90;;;;;;5054198;28;20244;-83
2023/09/17 06:50:07;;;;;;;11.17;10.27;;;19.90;99.90;;;;;;5053476;28;20223;-83
2023/09/17 06:52:35;;;;;;;11.53;10.73;;;20.10;99.90;;;;;;5043013;28;20211;-83
2023/09/17 06:55:04;;;;;;;11.03;10.23;;;20.40;99.90;;;;;;5047301;28;20573;-83
2023/09/17 06:57:31;;;;;;;7.83;7.00;;;20.70;99.90;;;;;;5050989;28;20207;-83
2023/09/17 06:59:58;;;;;;;10.00;9.10;;;20.90;99.90;;;;;;5049562;28;20246;-82
2023/09/17 07:02:25;;;;;;;11.53;10.57;;;21.10;99.90;;;;;;5045524;28;20200;-82
2023/09/17 07:04:51;;;;;;;5.90;5.30;;;21.40;99.90;;;;;;5046244;28;20701;-83
2023/09/17 07:07:18;;;;;;;11.37;10.30;;;21.70;99.90;;;;;;5049621;28;20206;-83
2023/09/17 07:09:46;;;;;;;9.77;8.97;;;22.20;99.90;;;;;;5041879;28;20255;-84
2023/09/17 07:12:13;;;;;;;10.97;10.17;;;22.60;99.90;;;;;;5049653;28;20643;-84
2023/09/17 07:14:41;;;;;;;7.97;7.37;;;23.10;99.90;;;;;;5050721;28;20199;-84
2023/09/17 07:17:08;;;;;;;6.77;6.23;;;23.30;99.90;;;;;;5049062;28;20295;-82
2023/09/17 07:19:34;;;;;;;7.50;6.90;;;23.30;99.90;;;;;;5043627;28;20219;-81
2023/09/17 07:22:01;;;;;;;7.67;6.40;;;23.20;99.90;;;;;;5050364;28;20203;-82
2023/09/17 07:24:28;;;;;;;8.93;8.17;;;23.10;99.90;;;;;;5044302;28;20576;-82
2023/09/17 07:26:56;;;;;;;6.33;5.73;;;23.20;99.90;;;;;;5048802;28;20207;-82
2023/09/17 07:29:23;;;;;;;7.13;6.30;;;23.20;99.90;;;;;;5043261;28;20693;-82
2023/09/17 07:31:50;;;;;;;6.00;5.50;;;23.20;99.90;;;;;;5047148;28;20222;-83
2023/09/17 07:34:16;;;;;;;6.63;6.13;;;23.30;99.90;;;;;;5042244;28;20191;-82
2023/09/17 07:36:43;;;;;;;8.20;7.60;;;23.30;99.90;;;;;;5055187;28;20202;-82
2023/09/17 07:39:10;;;;;;;6.63;6.03;;;23.50;99.90;;;;;;5049049;28;20227;-83
2023/09/17 07:41:37;;;;;;;8.33;7.73;;;23.50;99.90;;;;;;5046779;28;20245;-83
2023/09/17 07:44:06;;;;;;;7.37;6.77;;;23.50;99.90;;;;;;5053570;28;20611;-84
2023/09/17 07:46:32;;;;;;;6.47;5.97;;;23.40;99.90;;;;;;5046725;28;20191;-84
2023/09/17 07:49:00;;;;;;;9.90;9.10;;;23.30;99.90;;;;;;5052884;28;20223;-83
2023/09/17 07:51:27;;;;;;;9.07;8.43;;;23.40;99.90;;;;;;5046364;28;20222;-84
2023/09/17 07:53:53;;;;;;;4.90;4.40;;;23.40;99.90;;;;;;5060752;28;20202;-81
2023/09/17 07:56:20;;;;;;;7.40;6.77;;;23.70;99.90;;;;;;5053184;28;20215;-83
2023/09/17 07:58:47;;;;;;;8.93;8.13;;;23.80;99.90;;;;;;5049015;28;20223;-83
2023/09/17 08:01:15;;;;;;;8.70;8.00;;;24.00;99.90;;;;;;5046601;28;20191;-82
2023/09/17 08:03:42;;;;;;;9.37;8.67;;;24.10;99.90;;;;;;5054172;28;20195;-82
2023/09/17 08:06:11;;;;;;;8.97;8.30;;;24.10;99.90;;;;;;5058174;28;20612;-82
2023/09/17 08:08:38;;;;;;;7.60;7.00;;;24.00;99.90;;;;;;5051109;28;20230;-83
2023/09/17 08:11:04;;;;;;;4.70;4.30;;;24.00;99.90;;;;;;5056948;28;20206;-82
2023/09/17 08:13:31;;;;;;;5.13;4.63;;;24.00;99.90;;;;;;5053279;28;20187;-82
2023/09/17 08:15:58;;;;;;;5.00;4.10;;;23.90;99.90;;;;;;5053278;28;20669;-83
2023/09/17 08:18:26;;;;;;;5.13;4.13;;;24.00;99.90;;;;;;5057066;28;20200;-83
2023/09/17 08:20:53;;;;;;;5.73;4.47;;;23.90;99.90;;;;;;5052884;28;20207;-82
2023/09/17 08:23:20;;;;;;;5.37;4.40;;;24.00;99.90;;;;;;5061511;28;20202;-82
2023/09/17 08:25:47;;;;;;;5.57;4.40;;;24.10;99.90;;;;;;5059621;28;20207;-84
2023/09/17 08:28:15;;;;;;;6.10;4.93;;;24.10;99.90;;;;;;5058623;28;20217;-82
2023/09/17 08:30:42;;;;;;;5.73;5.23;;;24.30;99.90;;;;;;5050530;28;20210;-82
2023/09/17 08:33:10;;;;;;;4.60;4.20;;;24.30;99.90;;;;;;5059647;28;20247;-83
2023/09/17 08:35:39;;;;;;;6.13;4.33;;;24.30;99.90;;;;;;5052914;28;20225;-83
2023/09/17 08:38:06;;;;;;;7.77;7.17;;;24.40;99.90;;;;;;5058910;28;20233;-85
2023/09/17 08:40:35;;;;;;;4.87;4.43;;;24.60;99.90;;;;;;5045499;28;20310;-84
2023/09/17 08:43:04;;;;;;;6.50;5.60;;;25.00;99.90;;;;;;5056997;28;20665;-84
2023/09/17 08:45:32;;;;;;;6.50;5.90;;;25.50;99.90;;;;;;5054290;28;20285;-84
2023/09/17 08:47:59;;;;;;;5.37;4.80;;;26.30;99.90;;;;;;5058487;28;20203;-84
2023/09/17 08:50:28;;;;;;;8.40;7.70;;;26.90;99.90;;;;;;5053992;28;20214;-85
2023/09/17 08:53:01;;;;;;;7.70;7.00;;;27.40;99.90;;;;;;5051350;28;20223;-84
2023/09/17 08:55:28;;;;;;;8.27;7.60;;;27.90;99.90;;;;;;5050604;28;20195;-85
2023/09/17 08:57:58;;;;;;;8.07;7.47;;;28.20;99.90;;;;;;5047119;28;20203;-85
2023/09/17 09:00:27;;;;;;;7.60;6.80;;;28.20;99.90;;;;;;5054037;28;20215;-83
2023/09/17 09:03:01;;;;;;;7.47;6.80;;;28.30;99.90;;;;;;5053563;28;20191;-87
2023/09/17 09:05:28;;;;;;;6.03;5.27;;;28.40;99.90;;;;;;5051897;28;20195;-85
2023/09/17 09:07:57;;;;;;;7.27;6.77;;;28.50;99.90;;;;;;5053415;28;20191;-85
2023/09/17 09:10:25;;;;;;;7.10;6.50;;;28.80;99.90;;;;;;5052696;28;20242;-83
2023/09/17 09:12:52;;;;;;;7.27;6.67;;;28.70;99.90;;;;;;5051866;28;20242;-85
2023/09/17 09:15:19;;;;;;;9.00;8.20;;;28.60;99.90;;;;;;5044455;28;20203;-86
2023/09/17 09:17:46;;;;;;;8.03;7.33;;;28.60;99.90;;;;;;5051551;28;20211;-85
2023/09/17 09:20:14;;;;;;;7.70;7.00;;;28.90;99.90;;;;;;5043140;28;20215;-85
2023/09/17 09:22:43;;;;;;;7.43;6.57;;;29.00;99.90;;;;;;5048060;28;20555;-85
2023/09/17 09:25:14;;;;;;;5.97;5.40;;;29.20;99.90;;;;;;5049805;28;20286;-84
2023/09/17 09:27:41;;;;;;;7.87;6.50;;;29.30;99.90;;;;;;5052788;28;20202;-86
2023/09/17 09:30:10;;;;;;;7.43;6.73;;;29.40;99.90;;;;;;5051460;28;20588;-86
2023/09/17 09:32:37;;;;;;;8.57;7.87;;;29.60;99.90;;;;;;5051353;28;20211;-85
2023/09/17 09:35:06;;;;;;;9.07;8.27;;;29.70;99.90;;;;;;5042062;28;20195;-85
2023/09/17 09:37:35;;;;;;;11.10;8.20;;;29.80;99.90;;;;;;5050325;28;20199;-85
2023/09/17 09:40:02;;;;;;;10.27;8.07;;;30.10;99.90;;;;;;5048188;28;20657;-85
2023/09/17 09:42:31;;;;;;;9.07;8.30;;;30.30;99.90;;;;;;5048135;28;20199;-86
2023/09/17 09:45:12;;;;;;;9.63;8.73;;;30.40;99.90;;;;;;5051493;28;20204;-85
2023/09/17 09:47:51;;;;;;;8.67;8.07;;;30.30;99.90;;;;;;5052567;28;20191;-82
2023/09/17 09:50:24;;;;;;;8.90;8.10;;;30.40;99.90;;;;;;5047481;28;20705;-83
2023/09/17 09:52:52;;;;;;;8.43;7.60;;;30.30;99.90;;;;;;5054508;28;20215;-84
2023/09/17 09:55:20;;;;;;;8.57;7.87;;;30.10;99.90;;;;;;5044285;28;20609;-82
2023/09/17 09:57:49;;;;;;;9.00;8.17;;;30.00;99.90;;;;;;5054883;28;20211;-83
2023/09/17 10:00:20;;;;;;;9.33;8.43;;;30.00;99.90;;;;;;5050099;28;20230;-83
2023/09/17 10:02:47;;;;;;;8.27;7.57;;;29.90;99.90;;;;;;5053162;28;20669;-83
2023/09/17 10:05:18;;;;;;;8.43;6.97;;;29.60;99.90;;;;;;5055963;28;20199;-83
2023/09/17 10:07:48;;;;;;;7.93;7.23;;;29.40;99.90;;;;;;5047392;28;20198;-84
2023/09/17 10:10:16;;;;;;;8.03;7.33;;;29.40;99.90;;;;;;5049996;28;20219;-82
2023/09/17 10:12:44;;;;;;;8.57;7.20;;;29.40;99.90;;;;;;5053208;28;20639;-82
2023/09/17 10:15:14;;;;;;;7.97;7.23;;;29.30;99.90;;;;;;5051219;28;20696;-81
2023/09/17 10:17:41;;;;;;;9.87;7.40;;;29.10;99.90;;;;;;5051800;28;20684;-82
2023/09/17 10:20:13;;;;;;;7.90;7.30;;;28.90;99.90;;;;;;5047042;28;20237;-83
2023/09/17 10:22:41;;;;;;;7.60;6.90;;;28.80;99.90;;;;;;5046308;28;20180;-82
2023/09/17 10:25:21;;;;;;;7.67;6.90;;;28.60;99.90;;;;;;5045208;28;20210;-84
2023/09/17 10:27:51;;;;;;;7.93;7.20;;;28.80;99.90;;;;;;5048262;28;20290;-82
2023/09/17 10:30:25;;;;;;;5.60;5.10;;;28.70;99.90;;;;;;5051997;28;20297;-83
2023/09/17 10:32:53;;;;;;;7.83;5.03;;;28.70;99.90;;;;;;5046299;28;20304;-83
2023/09/17 10:35:20;;;;;;;7.93;7.23;;;28.70;99.90;;;;;;5051296;28;20195;-82
2023/09/17 10:37:57;;;;;;;6.90;6.40;;;28.70;99.90;;;;;;5047438;28;20206;-83
2023/09/17 10:40:26;;;;;;;6.10;5.70;;;28.90;99.90;;;;;;5050800;28;20229;-84
2023/09/17 10:42:56;;;;;;;6.70;6.10;;;29.00;99.90;;;;;;5045693;28;20190;-82
2023/09/17 10:45:37;;;;;;;8.17;7.17;;;29.10;99.90;;;;;;5043491;28;20198;-85
2023/09/17 10:48:05;;;;;;;7.20;6.60;;;29.00;99.90;;;;;;5054476;28;20605;-84
2023/09/17 10:50:34;;;;;;;7.60;6.90;;;28.90;99.90;;;;;;5058982;28;20221;-84
2023/09/17 10:53:01;;;;;;;10.80;7.13;;;28.60;99.90;;;;;;5051421;28;20246;-85
2023/09/17 10:55:34;;;;;;;7.23;6.60;;;28.50;99.90;;;;;;5045475;28;20207;-85
2023/09/17 10:58:10;;;;;;;7.27;6.63;;;28.50;99.90;;;;;;5050654;28;20199;-83
2023/09/17 11:00:42;;;;;;;5.93;4.70;;;28.50;99.90;;;;;;5051596;28;20246;-83
2023/09/17 11:03:12;;;;;;;9.80;6.67;;;28.50;99.90;;;;;;5054370;28;20206;-84
2023/09/17 11:05:39;;;;;;;6.73;6.23;;;28.50;99.90;;;;;;5047914;28;20261;-84
2023/09/17 11:08:08;;;;;;;6.57;6.00;;;28.60;99.90;;;;;;5044907;28;20206;-84
2023/09/17 11:10:41;;;;;;;6.80;6.20;;;28.60;99.90;;;;;;5048599;28;20593;-83
2023/09/17 11:13:11;;;;;;;6.77;6.17;;;28.70;99.90;;;;;;5044062;28;20313;-85
2023/09/17 11:15:40;;;;;;;7.30;6.70;;;28.80;99.90;;;;;;5047547;28;20203;-85
2023/09/17 11:18:08;;;;;;;7.57;6.63;;;28.80;99.90;;;;;;5050336;28;20603;-85
2023/09/17 11:20:58;;;;;;;6.83;6.23;;;28.80;99.90;;;;;;5049223;28;20223;-84
2023/09/17 11:23:37;;;;;;;7.23;6.63;;;28.50;99.90;;;;;;5051886;28;20219;-84
2023/09/17 11:26:04;;;;;;;7.50;6.90;;;28.30;99.90;;;;;;5054154;28;20198;-83
2023/09/17 11:31:18;;;;;;;6.87;3.20;;;28.30;99.90;;;;;;5058175;28;20191;-83
2023/09/17 11:33:47;;;;;;;5.40;3.30;;;28.40;99.90;;;;;;5038260;28;20230;-82
2023/09/17 11:36:15;;;;;;;4.27;3.30;;;28.50;99.90;;;;;;5044799;28;20257;-84
2023/09/17 11:38:47;;;;;;;4.70;3.00;;;28.60;99.90;;;;;;5053321;28;20285;-83
2023/09/17 11:41:16;;;;;;;5.53;3.20;;;28.50;99.90;;;;;;5055040;28;20195;-83
2023/09/17 11:43:45;;;;;;;5.07;4.67;;;28.30;99.90;;;;;;5045880;28;20195;-84
2023/09/17 11:46:14;;;;;;;5.77;2.93;;;28.30;99.90;;;;;;5054915;28;20210;-84
2023/09/17 11:48:43;;;;;;;8.07;7.40;;;28.20;99.90;;;;;;5051202;28;20707;-84
2023/09/17 11:51:25;;;;;;;7.67;7.17;;;28.20;99.90;;;;;;5055326;28;20203;-84
2023/09/17 11:53:57;;;;;;;8.10;7.17;;;28.20;99.90;;;;;;5055412;28;20289;-84
2023/09/17 11:56:26;;;;;;;7.33;6.63;;;28.10;99.90;;;;;;5042524;28;20196;-83
2023/09/17 11:59:05;;;;;;;6.67;6.10;;;28.20;99.90;;;;;;5053600;28;20219;-84
2023/09/17 12:01:37;;;;;;;6.97;6.37;;;28.40;99.90;;;;;;5054724;28;20268;-83
2023/09/17 12:04:08;;;;;;;6.40;5.90;;;28.60;99.90;;;;;;5048877;28;20218;-84
2023/09/17 12:06:38;;;;;;;8.40;5.50;;;28.70;99.90;;;;;;5054064;28;20191;-84
2023/09/17 12:09:10;;;;;;;6.93;5.83;;;28.70;99.90;;;;;;5053505;28;20223;-84
2023/09/17 12:11:38;;;;;;;6.10;5.50;;;28.70;99.90;;;;;;5052074;28;20199;-84
2023/09/17 12:14:06;;;;;;;7.03;6.40;;;28.80;99.90;;;;;;5040544;28;20690;-84
2023/09/17 12:16:34;;;;;;;7.97;7.17;;;29.00;99.90;;;;;;5052516;28;20203;-83
2023/09/17 12:19:01;;;;;;;8.07;6.87;;;29.30;99.90;;;;;;5064882;23;20250;-86
2023/09/17 12:21:31;;;;;;;6.40;5.00;;;29.30;99.90;;;;;;4993806;28;20205;-84
2023/09/17 12:24:05;;;;;;;6.00;5.33;;;29.40;99.90;;;;;;4989016;28;20202;-85
2023/09/17 12:26:37;;;;;;;6.13;4.43;;;29.40;99.90;;;;;;4993520;28;20193;-84
2023/09/17 12:29:10;;;;;;;4.77;3.60;;;29.40;99.90;;;;;;4994582;28;20228;-85
2023/09/17 12:31:37;;;;;;;12.30;7.83;;;29.30;99.90;;;;;;4984070;28;20658;-86
2023/09/17 12:34:04;;;;;;;7.07;6.43;;;29.40;99.90;;;;;;4983486;28;20615;-85
2023/09/17 12:36:32;;;;;;;7.00;6.40;;;29.30;99.90;;;;;;4986333;28;20212;-84
2023/09/17 12:39:00;;;;;;;8.77;7.70;;;29.30;99.90;;;;;;4992325;28;20225;-82
2023/09/17 12:41:27;;;;;;;7.50;6.50;;;29.40;99.90;;;;;;4987856;28;20667;-84
2023/09/17 12:43:57;;;;;;;6.67;6.03;;;29.40;99.90;;;;;;4980212;28;20205;-81
2023/09/17 12:46:24;;;;;;;7.17;6.57;;;29.40;99.90;;;;;;4982518;28;20206;-82
2023/09/17 12:48:51;;;;;;;6.83;6.23;;;29.50;99.90;;;;;;4982647;28;20197;-83
2023/09/17 12:51:19;;;;;;;6.43;5.83;;;29.40;99.90;;;;;;4982792;28;20623;-83